sensor_id;sensor_type;location;lat;lon;timestamp;P1;durP1;ratioP1;P2;durP2;ratioP2
20669;SDS011;10494;50.868;4.180;2022-08-03T00:01:40;4.55;;;1.20;;
20669;SDS011;10494;50.868;4.180;2022-08-03T00:04:07;2.28;;;0.80;;
20669;SDS011;10494;50.868;4.180;2022-08-03T00:06:33;3.38;;;1.20;;
20669;SDS011;10494;50.868;4.180;2022-08-03T00:08:59;5.88;;;1.35;;
20669;SDS011;10494;50.868;4.180;2022-08-03T00:11:25;2.78;;;1.20;;
20669;SDS011;10494;50.868;4.180;2022-08-03T00:13:51;6.88;;;1.75;;
20669;SDS011;10494;50.868;4.180;2022-08-03T00:16:17;6.70;;;1.30;;
20669;SDS011;10494;50.868;4.180;2022-08-03T00:18:43;7.30;;;1.15;;
20669;SDS011;10494;50.868;4.180;2022-08-03T00:21:08;7.03;;;1.35;;
20669;SDS011;10494;50.868;4.180;2022-08-03T00:23:34;5.97;;;1.52;;
20669;SDS011;10494;50.868;4.180;2022-08-03T00:26:00;4.93;;;1.80;;
20669;SDS011;10494;50.868;4.180;2022-08-03T00:28:25;8.85;;;1.42;;
20669;SDS011;10494;50.868;4.180;2022-08-03T00:30:51;7.70;;;1.42;;
20669;SDS011;10494;50.868;4.180;2022-08-03T00:33:17;5.07;;;1.42;;
20669;SDS011;10494;50.868;4.180;2022-08-03T00:35:43;7.05;;;1.70;;
20669;SDS011;10494;50.868;4.180;2022-08-03T00:38:09;10.50;;;1.77;;
20669;SDS011;10494;50.868;4.180;2022-08-03T00:40:34;2.28;;;1.27;;
20669;SDS011;10494;50.868;4.180;2022-08-03T00:43:01;3.97;;;1.33;;
20669;SDS011;10494;50.868;4.180;2022-08-03T00:45:29;5.88;;;1.63;;
20669;SDS011;10494;50.868;4.180;2022-08-03T00:47:56;5.32;;;1.45;;
20669;SDS011;10494;50.868;4.180;2022-08-03T00:50:23;6.80;;;1.80;;
20669;SDS011;10494;50.868;4.180;2022-08-03T00:52:51;9.85;;;2.47;;
20669;SDS011;10494;50.868;4.180;2022-08-03T00:55:18;8.02;;;1.88;;
20669;SDS011;10494;50.868;4.180;2022-08-03T00:57:44;4.82;;;1.65;;
20669;SDS011;10494;50.868;4.180;2022-08-03T01:00:11;5.57;;;1.75;;
20669;SDS011;10494;50.868;4.180;2022-08-03T01:02:39;5.13;;;1.70;;
20669;SDS011;10494;50.868;4.180;2022-08-03T01:05:05;6.18;;;1.67;;
20669;SDS011;10494;50.868;4.180;2022-08-03T01:07:35;7.18;;;1.60;;
20669;SDS011;10494;50.868;4.180;2022-08-03T01:10:05;7.07;;;1.63;;
20669;SDS011;10494;50.868;4.180;2022-08-03T01:18:16;5.47;;;1.75;;
20669;SDS011;10494;50.868;4.180;2022-08-03T01:20:47;6.57;;;1.30;;
20669;SDS011;10494;50.868;4.180;2022-08-03T01:32:01;6.55;;;1.65;;
20669;SDS011;10494;50.868;4.180;2022-08-03T01:34:39;9.85;;;1.60;;
20669;SDS011;10494;50.868;4.180;2022-08-03T01:37:08;5.60;;;1.75;;
20669;SDS011;10494;50.868;4.180;2022-08-03T01:39:36;6.43;;;1.30;;
20669;SDS011;10494;50.868;4.180;2022-08-03T01:42:05;14.80;;;1.75;;
20669;SDS011;10494;50.868;4.180;2022-08-03T01:44:36;9.48;;;1.58;;
20669;SDS011;10494;50.868;4.180;2022-08-03T01:47:04;8.77;;;1.85;;
20669;SDS011;10494;50.868;4.180;2022-08-03T01:49:34;3.92;;;1.60;;
20669;SDS011;10494;50.868;4.180;2022-08-03T01:52:03;4.78;;;2.20;;
20669;SDS011;10494;50.868;4.180;2022-08-03T01:54:30;6.65;;;1.50;;
20669;SDS011;10494;50.868;4.180;2022-08-03T01:56:59;7.93;;;1.88;;
20669;SDS011;10494;50.868;4.180;2022-08-03T01:59:26;8.88;;;1.83;;
20669;SDS011;10494;50.868;4.180;2022-08-03T02:01:54;6.88;;;1.98;;
20669;SDS011;10494;50.868;4.180;2022-08-03T02:04:21;4.70;;;1.65;;
20669;SDS011;10494;50.868;4.180;2022-08-03T02:06:49;10.88;;;1.95;;
20669;SDS011;10494;50.868;4.180;2022-08-03T02:09:16;8.25;;;1.75;;
20669;SDS011;10494;50.868;4.180;2022-08-03T02:11:45;4.78;;;1.60;;
20669;SDS011;10494;50.868;4.180;2022-08-03T02:14:11;5.38;;;1.80;;
20669;SDS011;10494;50.868;4.180;2022-08-03T02:16:39;9.85;;;1.85;;
20669;SDS011;10494;50.868;4.180;2022-08-03T02:19:05;5.93;;;1.95;;
20669;SDS011;10494;50.868;4.180;2022-08-03T02:21:34;6.57;;;1.98;;
20669;SDS011;10494;50.868;4.180;2022-08-03T02:24:01;4.15;;;1.60;;
20669;SDS011;10494;50.868;4.180;2022-08-03T02:26:28;7.72;;;2.35;;
20669;SDS011;10494;50.868;4.180;2022-08-03T02:28:55;6.10;;;1.77;;
20669;SDS011;10494;50.868;4.180;2022-08-03T02:31:27;5.15;;;1.42;;
20669;SDS011;10494;50.868;4.180;2022-08-03T02:33:57;4.05;;;1.50;;
20669;SDS011;10494;50.868;4.180;2022-08-03T02:36:27;3.90;;;1.50;;
20669;SDS011;10494;50.868;4.180;2022-08-03T02:38:56;5.10;;;1.52;;
20669;SDS011;10494;50.868;4.180;2022-08-03T02:41:27;6.80;;;1.60;;
20669;SDS011;10494;50.868;4.180;2022-08-03T02:43:55;3.97;;;1.58;;
20669;SDS011;10494;50.868;4.180;2022-08-03T02:46:24;9.07;;;1.95;;
20669;SDS011;10494;50.868;4.180;2022-08-03T02:48:56;5.32;;;1.70;;
20669;SDS011;10494;50.868;4.180;2022-08-03T02:51:25;3.83;;;1.73;;
20669;SDS011;10494;50.868;4.180;2022-08-03T02:53:53;6.72;;;1.83;;
20669;SDS011;10494;50.868;4.180;2022-08-03T02:56:22;4.15;;;1.70;;
20669;SDS011;10494;50.868;4.180;2022-08-03T02:58:50;7.40;;;1.98;;
20669;SDS011;10494;50.868;4.180;2022-08-03T03:01:23;7.72;;;1.90;;
20669;SDS011;10494;50.868;4.180;2022-08-03T03:03:51;7.45;;;1.60;;
20669;SDS011;10494;50.868;4.180;2022-08-03T03:06:18;5.60;;;1.50;;
20669;SDS011;10494;50.868;4.180;2022-08-03T03:08:46;7.30;;;1.70;;
20669;SDS011;10494;50.868;4.180;2022-08-03T03:11:14;4.80;;;1.67;;
20669;SDS011;10494;50.868;4.180;2022-08-03T03:13:42;4.70;;;1.63;;
20669;SDS011;10494;50.868;4.180;2022-08-03T03:16:08;4.40;;;1.83;;
20669;SDS011;10494;50.868;4.180;2022-08-03T03:18:37;6.38;;;1.73;;
20669;SDS011;10494;50.868;4.180;2022-08-03T03:21:04;6.35;;;1.77;;
20669;SDS011;10494;50.868;4.180;2022-08-03T03:23:34;8.55;;;2.55;;
20669;SDS011;10494;50.868;4.180;2022-08-03T03:26:01;5.97;;;1.98;;
20669;SDS011;10494;50.868;4.180;2022-08-03T03:28:28;8.25;;;1.63;;
20669;SDS011;10494;50.868;4.180;2022-08-03T03:30:55;4.72;;;2.20;;
20669;SDS011;10494;50.868;4.180;2022-08-03T03:33:21;5.15;;;1.75;;
20669;SDS011;10494;50.868;4.180;2022-08-03T03:35:47;4.90;;;1.60;;
20669;SDS011;10494;50.868;4.180;2022-08-03T03:38:13;2.72;;;1.55;;
20669;SDS011;10494;50.868;4.180;2022-08-03T03:40:39;5.07;;;1.70;;
20669;SDS011;10494;50.868;4.180;2022-08-03T03:43:09;4.32;;;1.63;;
20669;SDS011;10494;50.868;4.180;2022-08-03T03:45:36;7.10;;;1.90;;
20669;SDS011;10494;50.868;4.180;2022-08-03T03:48:05;3.83;;;1.48;;
20669;SDS011;10494;50.868;4.180;2022-08-03T03:50:32;4.05;;;1.35;;
20669;SDS011;10494;50.868;4.180;2022-08-03T03:52:59;4.38;;;1.70;;
20669;SDS011;10494;50.868;4.180;2022-08-03T03:55:26;3.25;;;1.60;;
20669;SDS011;10494;50.868;4.180;2022-08-03T03:57:52;9.60;;;2.67;;
20669;SDS011;10494;50.868;4.180;2022-08-03T04:00:18;8.60;;;1.77;;
20669;SDS011;10494;50.868;4.180;2022-08-03T04:02:44;4.05;;;1.83;;
20669;SDS011;10494;50.868;4.180;2022-08-03T04:05:10;4.93;;;1.98;;
20669;SDS011;10494;50.868;4.180;2022-08-03T04:07:59;3.75;;;1.55;;
20669;SDS011;10494;50.868;4.180;2022-08-03T04:11:06;7.20;;;1.60;;
20669;SDS011;10494;50.868;4.180;2022-08-03T04:13:43;5.22;;;1.95;;
20669;SDS011;10494;50.868;4.180;2022-08-03T04:16:14;7.40;;;1.77;;
20669;SDS011;10494;50.868;4.180;2022-08-03T04:18:43;5.05;;;2.05;;
20669;SDS011;10494;50.868;4.180;2022-08-03T04:21:12;4.18;;;1.33;;
20669;SDS011;10494;50.868;4.180;2022-08-03T04:23:42;3.80;;;1.83;;
20669;SDS011;10494;50.868;4.180;2022-08-03T04:26:12;7.63;;;1.98;;
20669;SDS011;10494;50.868;4.180;2022-08-03T04:28:41;4.13;;;1.55;;
20669;SDS011;10494;50.868;4.180;2022-08-03T04:31:10;8.32;;;2.50;;
20669;SDS011;10494;50.868;4.180;2022-08-03T04:33:37;8.77;;;2.30;;
20669;SDS011;10494;50.868;4.180;2022-08-03T04:36:06;13.10;;;1.90;;
20669;SDS011;10494;50.868;4.180;2022-08-03T04:38:35;5.30;;;1.77;;
20669;SDS011;10494;50.868;4.180;2022-08-03T04:41:04;4.13;;;1.67;;
20669;SDS011;10494;50.868;4.180;2022-08-03T04:43:31;8.63;;;1.98;;
20669;SDS011;10494;50.868;4.180;2022-08-03T04:45:58;6.63;;;1.88;;
20669;SDS011;10494;50.868;4.180;2022-08-03T04:48:26;4.80;;;1.80;;
20669;SDS011;10494;50.868;4.180;2022-08-03T04:50:52;7.70;;;2.28;;
20669;SDS011;10494;50.868;4.180;2022-08-03T04:53:18;11.05;;;2.28;;
20669;SDS011;10494;50.868;4.180;2022-08-03T04:55:43;6.20;;;2.05;;
20669;SDS011;10494;50.868;4.180;2022-08-03T04:58:09;7.72;;;2.13;;
20669;SDS011;10494;50.868;4.180;2022-08-03T05:00:36;4.40;;;1.90;;
20669;SDS011;10494;50.868;4.180;2022-08-03T05:03:02;4.47;;;2.00;;
20669;SDS011;10494;50.868;4.180;2022-08-03T05:05:27;6.38;;;2.20;;
20669;SDS011;10494;50.868;4.180;2022-08-03T05:07:53;7.25;;;1.98;;
20669;SDS011;10494;50.868;4.180;2022-08-03T05:10:20;8.77;;;1.63;;
20669;SDS011;10494;50.868;4.180;2022-08-03T05:12:46;6.35;;;2.50;;
20669;SDS011;10494;50.868;4.180;2022-08-03T05:15:12;5.25;;;2.00;;
20669;SDS011;10494;50.868;4.180;2022-08-03T05:17:38;6.75;;;2.00;;
20669;SDS011;10494;50.868;4.180;2022-08-03T05:20:04;7.03;;;1.95;;
20669;SDS011;10494;50.868;4.180;2022-08-03T05:22:30;5.10;;;2.20;;
20669;SDS011;10494;50.868;4.180;2022-08-03T05:24:56;5.18;;;2.10;;
20669;SDS011;10494;50.868;4.180;2022-08-03T05:27:22;6.30;;;1.95;;
20669;SDS011;10494;50.868;4.180;2022-08-03T05:29:48;3.38;;;2.03;;
20669;SDS011;10494;50.868;4.180;2022-08-03T05:32:15;6.22;;;1.80;;
20669;SDS011;10494;50.868;4.180;2022-08-03T05:34:42;5.35;;;1.88;;
20669;SDS011;10494;50.868;4.180;2022-08-03T05:37:08;6.28;;;2.30;;
20669;SDS011;10494;50.868;4.180;2022-08-03T05:39:34;6.63;;;3.00;;
20669;SDS011;10494;50.868;4.180;2022-08-03T05:42:00;6.45;;;2.13;;
20669;SDS011;10494;50.868;4.180;2022-08-03T05:44:26;8.32;;;2.13;;
20669;SDS011;10494;50.868;4.180;2022-08-03T05:46:52;8.45;;;2.88;;
20669;SDS011;10494;50.868;4.180;2022-08-03T05:49:18;12.13;;;2.35;;
20669;SDS011;10494;50.868;4.180;2022-08-03T05:51:44;8.05;;;2.28;;
20669;SDS011;10494;50.868;4.180;2022-08-03T05:54:09;6.57;;;2.03;;
20669;SDS011;10494;50.868;4.180;2022-08-03T05:56:35;7.05;;;2.20;;
20669;SDS011;10494;50.868;4.180;2022-08-03T05:59:01;7.53;;;2.58;;
20669;SDS011;10494;50.868;4.180;2022-08-03T06:01:27;6.43;;;2.55;;
20669;SDS011;10494;50.868;4.180;2022-08-03T06:03:55;8.75;;;2.40;;
20669;SDS011;10494;50.868;4.180;2022-08-03T06:06:21;5.70;;;2.42;;
20669;SDS011;10494;50.868;4.180;2022-08-03T06:08:46;5.60;;;2.17;;
20669;SDS011;10494;50.868;4.180;2022-08-03T06:11:12;8.50;;;2.38;;
20669;SDS011;10494;50.868;4.180;2022-08-03T06:13:38;8.38;;;2.10;;
20669;SDS011;10494;50.868;4.180;2022-08-03T06:16:04;10.75;;;2.40;;
20669;SDS011;10494;50.868;4.180;2022-08-03T06:18:30;11.18;;;2.65;;
20669;SDS011;10494;50.868;4.180;2022-08-03T06:20:55;12.23;;;2.20;;
20669;SDS011;10494;50.868;4.180;2022-08-03T06:23:21;6.60;;;2.00;;
20669;SDS011;10494;50.868;4.180;2022-08-03T06:25:47;6.50;;;2.30;;
20669;SDS011;10494;50.868;4.180;2022-08-03T06:28:13;4.97;;;2.00;;
20669;SDS011;10494;50.868;4.180;2022-08-03T06:30:39;5.88;;;1.90;;
20669;SDS011;10494;50.868;4.180;2022-08-03T06:33:05;9.10;;;2.00;;
20669;SDS011;10494;50.868;4.180;2022-08-03T06:35:31;3.88;;;1.70;;
20669;SDS011;10494;50.868;4.180;2022-08-03T06:37:57;4.78;;;2.10;;
20669;SDS011;10494;50.868;4.180;2022-08-03T06:40:23;5.15;;;1.77;;
20669;SDS011;10494;50.868;4.180;2022-08-03T06:42:59;10.50;;;2.20;;
20669;SDS011;10494;50.868;4.180;2022-08-03T06:45:26;9.05;;;1.90;;
20669;SDS011;10494;50.868;4.180;2022-08-03T06:47:59;14.82;;;2.08;;
20669;SDS011;10494;50.868;4.180;2022-08-03T06:50:26;15.68;;;2.40;;
20669;SDS011;10494;50.868;4.180;2022-08-03T06:52:52;5.75;;;1.58;;
20669;SDS011;10494;50.868;4.180;2022-08-03T06:55:18;4.60;;;1.63;;
20669;SDS011;10494;50.868;4.180;2022-08-03T06:57:43;5.80;;;1.65;;
20669;SDS011;10494;50.868;4.180;2022-08-03T07:00:09;7.60;;;1.60;;
20669;SDS011;10494;50.868;4.180;2022-08-03T07:02:36;5.15;;;1.42;;
20669;SDS011;10494;50.868;4.180;2022-08-03T07:05:02;8.65;;;1.52;;
20669;SDS011;10494;50.868;4.180;2022-08-03T07:07:27;9.77;;;1.80;;
20669;SDS011;10494;50.868;4.180;2022-08-03T07:09:53;6.88;;;1.50;;
20669;SDS011;10494;50.868;4.180;2022-08-03T07:12:19;8.02;;;1.90;;
20669;SDS011;10494;50.868;4.180;2022-08-03T07:14:44;5.10;;;1.20;;
20669;SDS011;10494;50.868;4.180;2022-08-03T07:17:10;8.65;;;1.52;;
20669;SDS011;10494;50.868;4.180;2022-08-03T07:19:35;8.63;;;1.85;;
20669;SDS011;10494;50.868;4.180;2022-08-03T07:22:01;7.00;;;3.15;;
20669;SDS011;10494;50.868;4.180;2022-08-03T07:24:27;11.77;;;1.50;;
20669;SDS011;10494;50.868;4.180;2022-08-03T07:26:53;5.03;;;1.63;;
20669;SDS011;10494;50.868;4.180;2022-08-03T07:29:19;6.05;;;1.27;;
20669;SDS011;10494;50.868;4.180;2022-08-03T07:31:44;10.50;;;1.70;;
20669;SDS011;10494;50.868;4.180;2022-08-03T07:34:10;13.88;;;1.90;;
20669;SDS011;10494;50.868;4.180;2022-08-03T07:36:36;10.18;;;1.35;;
20669;SDS011;10494;50.868;4.180;2022-08-03T07:39:02;9.90;;;1.77;;
20669;SDS011;10494;50.868;4.180;2022-08-03T07:41:28;17.38;;;1.92;;
20669;SDS011;10494;50.868;4.180;2022-08-03T07:43:54;9.27;;;1.70;;
20669;SDS011;10494;50.868;4.180;2022-08-03T07:46:19;8.82;;;1.27;;
20669;SDS011;10494;50.868;4.180;2022-08-03T07:48:45;3.78;;;1.25;;
20669;SDS011;10494;50.868;4.180;2022-08-03T07:51:11;7.90;;;1.25;;
20669;SDS011;10494;50.868;4.180;2022-08-03T07:53:36;7.13;;;1.65;;
20669;SDS011;10494;50.868;4.180;2022-08-03T07:56:02;7.50;;;1.40;;
20669;SDS011;10494;50.868;4.180;2022-08-03T07:58:28;5.75;;;1.20;;
20669;SDS011;10494;50.868;4.180;2022-08-03T08:00:53;8.05;;;1.13;;
20669;SDS011;10494;50.868;4.180;2022-08-03T08:03:19;5.47;;;1.33;;
20669;SDS011;10494;50.868;4.180;2022-08-03T08:05:45;7.68;;;1.52;;
20669;SDS011;10494;50.868;4.180;2022-08-03T08:08:11;10.77;;;1.30;;
20669;SDS011;10494;50.868;4.180;2022-08-03T08:10:37;8.65;;;1.52;;
20669;SDS011;10494;50.868;4.180;2022-08-03T08:13:03;8.10;;;1.60;;
20669;SDS011;10494;50.868;4.180;2022-08-03T08:15:29;6.22;;;1.25;;
20669;SDS011;10494;50.868;4.180;2022-08-03T08:17:56;8.27;;;1.75;;
20669;SDS011;10494;50.868;4.180;2022-08-03T08:20:24;6.47;;;1.00;;
20669;SDS011;10494;50.868;4.180;2022-08-03T08:22:51;7.95;;;1.15;;
20669;SDS011;10494;50.868;4.180;2022-08-03T08:25:19;9.88;;;1.75;;
20669;SDS011;10494;50.868;4.180;2022-08-03T08:27:45;8.38;;;1.63;;
20669;SDS011;10494;50.868;4.180;2022-08-03T08:30:13;7.18;;;1.20;;
20669;SDS011;10494;50.868;4.180;2022-08-03T08:32:40;5.35;;;1.55;;
20669;SDS011;10494;50.868;4.180;2022-08-03T08:35:07;10.65;;;1.90;;
20669;SDS011;10494;50.868;4.180;2022-08-03T08:37:33;8.18;;;2.15;;
20669;SDS011;10494;50.868;4.180;2022-08-03T08:39:59;11.55;;;1.50;;
20669;SDS011;10494;50.868;4.180;2022-08-03T08:42:25;9.63;;;1.27;;
20669;SDS011;10494;50.868;4.180;2022-08-03T08:44:50;9.27;;;1.40;;
20669;SDS011;10494;50.868;4.180;2022-08-03T08:47:59;5.45;;;1.15;;
20669;SDS011;10494;50.868;4.180;2022-08-03T08:50:09;7.43;;;1.33;;
20669;SDS011;10494;50.868;4.180;2022-08-03T08:52:35;7.47;;;1.05;;
20669;SDS011;10494;50.868;4.180;2022-08-03T08:55:04;7.15;;;1.35;;
20669;SDS011;10494;50.868;4.180;2022-08-03T08:57:35;9.25;;;1.50;;
20669;SDS011;10494;50.868;4.180;2022-08-03T09:00:06;7.05;;;1.17;;
20669;SDS011;10494;50.868;4.180;2022-08-03T09:02:35;6.35;;;1.83;;
20669;SDS011;10494;50.868;4.180;2022-08-03T09:05:01;10.50;;;2.38;;
20669;SDS011;10494;50.868;4.180;2022-08-03T09:07:27;15.60;;;2.65;;
20669;SDS011;10494;50.868;4.180;2022-08-03T09:09:53;4.95;;;1.08;;
20669;SDS011;10494;50.868;4.180;2022-08-03T09:12:19;6.43;;;1.50;;
20669;SDS011;10494;50.868;4.180;2022-08-03T09:14:45;7.13;;;1.67;;
20669;SDS011;10494;50.868;4.180;2022-08-03T09:17:11;10.20;;;1.67;;
20669;SDS011;10494;50.868;4.180;2022-08-03T09:19:36;6.85;;;1.17;;
20669;SDS011;10494;50.868;4.180;2022-08-03T09:22:09;5.82;;;1.55;;
20669;SDS011;10494;50.868;4.180;2022-08-03T09:24:53;5.00;;;1.13;;
20669;SDS011;10494;50.868;4.180;2022-08-03T09:27:19;8.20;;;1.40;;
20669;SDS011;10494;50.868;4.180;2022-08-03T09:29:49;9.52;;;1.17;;
20669;SDS011;10494;50.868;4.180;2022-08-03T09:32:18;5.72;;;1.20;;
20669;SDS011;10494;50.868;4.180;2022-08-03T09:34:45;4.10;;;1.02;;
20669;SDS011;10494;50.868;4.180;2022-08-03T09:37:13;6.30;;;1.08;;
20669;SDS011;10494;50.868;4.180;2022-08-03T09:39:40;5.55;;;1.25;;
20669;SDS011;10494;50.868;4.180;2022-08-03T09:42:07;6.00;;;1.20;;
20669;SDS011;10494;50.868;4.180;2022-08-03T09:44:46;5.63;;;1.33;;
20669;SDS011;10494;50.868;4.180;2022-08-03T09:47:16;5.40;;;1.30;;
20669;SDS011;10494;50.868;4.180;2022-08-03T09:49:58;6.10;;;1.08;;
20669;SDS011;10494;50.868;4.180;2022-08-03T09:52:37;7.30;;;1.25;;
20669;SDS011;10494;50.868;4.180;2022-08-03T09:55:07;3.63;;;1.10;;
20669;SDS011;10494;50.868;4.180;2022-08-03T09:57:34;6.95;;;1.42;;
20669;SDS011;10494;50.868;4.180;2022-08-03T10:00:04;8.98;;;1.73;;
20669;SDS011;10494;50.868;4.180;2022-08-03T10:02:36;6.03;;;1.10;;
20669;SDS011;10494;50.868;4.180;2022-08-03T10:05:02;5.57;;;0.93;;
20669;SDS011;10494;50.868;4.180;2022-08-03T10:07:29;5.75;;;1.42;;
20669;SDS011;10494;50.868;4.180;2022-08-03T10:09:58;8.77;;;1.20;;
20669;SDS011;10494;50.868;4.180;2022-08-03T10:12:25;5.25;;;1.00;;
20669;SDS011;10494;50.868;4.180;2022-08-03T10:14:50;4.47;;;0.98;;
20669;SDS011;10494;50.868;4.180;2022-08-03T10:17:17;6.22;;;1.10;;
20669;SDS011;10494;50.868;4.180;2022-08-03T10:19:44;5.85;;;1.00;;
20669;SDS011;10494;50.868;4.180;2022-08-03T10:25:03;5.85;;;1.50;;
20669;SDS011;10494;50.868;4.180;2022-08-03T10:27:37;5.10;;;1.27;;
20669;SDS011;10494;50.868;4.180;2022-08-03T10:30:06;4.35;;;1.10;;
20669;SDS011;10494;50.868;4.180;2022-08-03T10:32:39;5.57;;;1.00;;
20669;SDS011;10494;50.868;4.180;2022-08-03T10:35:14;5.40;;;0.73;;
20669;SDS011;10494;50.868;4.180;2022-08-03T10:37:55;4.00;;;1.10;;
20669;SDS011;10494;50.868;4.180;2022-08-03T10:40:22;3.28;;;0.77;;
20669;SDS011;10494;50.868;4.180;2022-08-03T10:42:50;2.90;;;0.80;;
20669;SDS011;10494;50.868;4.180;2022-08-03T10:45:22;2.63;;;0.68;;
20669;SDS011;10494;50.868;4.180;2022-08-03T10:47:50;3.45;;;0.82;;
20669;SDS011;10494;50.868;4.180;2022-08-03T10:50:16;3.33;;;0.90;;
20669;SDS011;10494;50.868;4.180;2022-08-03T10:52:59;5.63;;;0.98;;
20669;SDS011;10494;50.868;4.180;2022-08-03T10:55:30;3.92;;;0.80;;
20669;SDS011;10494;50.868;4.180;2022-08-03T11:01:01;3.38;;;0.52;;
20669;SDS011;10494;50.868;4.180;2022-08-03T11:03:27;7.05;;;0.85;;
20669;SDS011;10494;50.868;4.180;2022-08-03T11:05:53;3.05;;;0.75;;
20669;SDS011;10494;50.868;4.180;2022-08-03T11:08:48;8.73;;;1.30;;
20669;SDS011;10494;50.868;4.180;2022-08-03T11:11:34;3.25;;;0.70;;
20669;SDS011;10494;50.868;4.180;2022-08-03T11:14:05;7.05;;;1.13;;
20669;SDS011;10494;50.868;4.180;2022-08-03T11:16:33;4.10;;;0.70;;
20669;SDS011;10494;50.868;4.180;2022-08-03T11:19:05;5.90;;;0.80;;
20669;SDS011;10494;50.868;4.180;2022-08-03T11:29:52;4.10;;;0.85;;
20669;SDS011;10494;50.868;4.180;2022-08-03T11:35:15;3.65;;;1.10;;
20669;SDS011;10494;50.868;4.180;2022-08-03T11:40:31;3.35;;;0.80;;
20669;SDS011;10494;50.868;4.180;2022-08-03T11:43:43;5.97;;;0.80;;
20669;SDS011;10494;50.868;4.180;2022-08-03T11:46:01;3.08;;;1.27;;
20669;SDS011;10494;50.868;4.180;2022-08-03T11:48:33;2.22;;;0.63;;
20669;SDS011;10494;50.868;4.180;2022-08-03T11:51:01;3.17;;;0.90;;
20669;SDS011;10494;50.868;4.180;2022-08-03T11:53:32;6.80;;;1.40;;
20669;SDS011;10494;50.868;4.180;2022-08-03T11:55:59;3.20;;;0.85;;
20669;SDS011;10494;50.868;4.180;2022-08-03T11:58:25;7.28;;;0.85;;
20669;SDS011;10494;50.868;4.180;2022-08-03T12:00:52;5.18;;;1.20;;
20669;SDS011;10494;50.868;4.180;2022-08-03T12:03:32;6.55;;;1.33;;
20669;SDS011;10494;50.868;4.180;2022-08-03T12:05:58;6.90;;;1.10;;
20669;SDS011;10494;50.868;4.180;2022-08-03T12:08:29;1.77;;;0.80;;
20669;SDS011;10494;50.868;4.180;2022-08-03T12:10:57;4.68;;;0.80;;
20669;SDS011;10494;50.868;4.180;2022-08-03T12:13:23;6.22;;;0.98;;
20669;SDS011;10494;50.868;4.180;2022-08-03T12:15:53;4.88;;;0.80;;
20669;SDS011;10494;50.868;4.180;2022-08-03T12:18:20;2.17;;;0.90;;
20669;SDS011;10494;50.868;4.180;2022-08-03T12:20:48;2.72;;;0.70;;
20669;SDS011;10494;50.868;4.180;2022-08-03T12:23:15;4.25;;;0.90;;
20669;SDS011;10494;50.868;4.180;2022-08-03T12:25:42;3.00;;;1.13;;
20669;SDS011;10494;50.868;4.180;2022-08-03T12:28:16;4.50;;;1.00;;
20669;SDS011;10494;50.868;4.180;2022-08-03T12:30:45;4.60;;;1.00;;
20669;SDS011;10494;50.868;4.180;2022-08-03T12:33:14;4.60;;;0.80;;
20669;SDS011;10494;50.868;4.180;2022-08-03T12:35:40;3.95;;;0.95;;
20669;SDS011;10494;50.868;4.180;2022-08-03T12:38:06;4.03;;;1.00;;
20669;SDS011;10494;50.868;4.180;2022-08-03T12:40:31;4.70;;;1.25;;
20669;SDS011;10494;50.868;4.180;2022-08-03T12:42:57;2.97;;;0.90;;
20669;SDS011;10494;50.868;4.180;2022-08-03T12:45:27;4.20;;;0.63;;
20669;SDS011;10494;50.868;4.180;2022-08-03T12:47:59;2.17;;;0.73;;
20669;SDS011;10494;50.868;4.180;2022-08-03T12:50:32;7.00;;;0.93;;
20669;SDS011;10494;50.868;4.180;2022-08-03T12:53:00;1.13;;;0.65;;
20669;SDS011;10494;50.868;4.180;2022-08-03T12:55:28;3.42;;;0.77;;
20669;SDS011;10494;50.868;4.180;2022-08-03T12:58:01;4.97;;;0.80;;
20669;SDS011;10494;50.868;4.180;2022-08-03T13:00:27;6.90;;;1.02;;
20669;SDS011;10494;50.868;4.180;2022-08-03T13:03:12;2.25;;;0.75;;
20669;SDS011;10494;50.868;4.180;2022-08-03T13:05:44;6.10;;;0.60;;
20669;SDS011;10494;50.868;4.180;2022-08-03T13:08:20;2.30;;;1.00;;
20669;SDS011;10494;50.868;4.180;2022-08-03T13:10:47;2.45;;;0.93;;
20669;SDS011;10494;50.868;4.180;2022-08-03T13:13:13;6.32;;;1.13;;
20669;SDS011;10494;50.868;4.180;2022-08-03T13:15:39;5.10;;;0.90;;
20669;SDS011;10494;50.868;4.180;2022-08-03T13:18:04;4.90;;;0.90;;
20669;SDS011;10494;50.868;4.180;2022-08-03T13:20:30;2.15;;;0.80;;
20669;SDS011;10494;50.868;4.180;2022-08-03T13:22:56;3.47;;;1.20;;
20669;SDS011;10494;50.868;4.180;2022-08-03T13:25:22;2.70;;;0.75;;
20669;SDS011;10494;50.868;4.180;2022-08-03T13:27:48;4.18;;;1.20;;
20669;SDS011;10494;50.868;4.180;2022-08-03T13:30:13;4.18;;;1.15;;
20669;SDS011;10494;50.868;4.180;2022-08-03T13:32:40;6.55;;;1.27;;
20669;SDS011;10494;50.868;4.180;2022-08-03T13:35:06;6.00;;;1.00;;
20669;SDS011;10494;50.868;4.180;2022-08-03T13:37:33;7.97;;;0.73;;
20669;SDS011;10494;50.868;4.180;2022-08-03T13:39:59;6.93;;;1.30;;
20669;SDS011;10494;50.868;4.180;2022-08-03T13:42:31;4.80;;;1.42;;
20669;SDS011;10494;50.868;4.180;2022-08-03T13:44:58;4.53;;;1.20;;
20669;SDS011;10494;50.868;4.180;2022-08-03T13:47:24;5.45;;;1.08;;
20669;SDS011;10494;50.868;4.180;2022-08-03T13:49:50;6.03;;;1.08;;
20669;SDS011;10494;50.868;4.180;2022-08-03T13:52:17;4.57;;;1.10;;
20669;SDS011;10494;50.868;4.180;2022-08-03T13:54:43;5.88;;;1.60;;
20669;SDS011;10494;50.868;4.180;2022-08-03T13:57:09;4.57;;;1.08;;
20669;SDS011;10494;50.868;4.180;2022-08-03T13:59:35;4.25;;;0.98;;
20669;SDS011;10494;50.868;4.180;2022-08-03T14:02:02;5.80;;;1.45;;
20669;SDS011;10494;50.868;4.180;2022-08-03T14:04:28;1.55;;;0.60;;
20669;SDS011;10494;50.868;4.180;2022-08-03T14:06:54;5.65;;;1.10;;
20669;SDS011;10494;50.868;4.180;2022-08-03T14:09:19;3.42;;;0.90;;
20669;SDS011;10494;50.868;4.180;2022-08-03T14:11:45;3.38;;;0.80;;
20669;SDS011;10494;50.868;4.180;2022-08-03T14:14:11;2.80;;;0.88;;
20669;SDS011;10494;50.868;4.180;2022-08-03T14:16:37;5.50;;;1.00;;
20669;SDS011;10494;50.868;4.180;2022-08-03T14:19:03;4.22;;;0.82;;
20669;SDS011;10494;50.868;4.180;2022-08-03T14:21:31;4.22;;;1.30;;
20669;SDS011;10494;50.868;4.180;2022-08-03T14:23:57;5.45;;;0.90;;
20669;SDS011;10494;50.868;4.180;2022-08-03T14:26:23;4.65;;;0.85;;
20669;SDS011;10494;50.868;4.180;2022-08-03T14:28:48;4.63;;;1.48;;
20669;SDS011;10494;50.868;4.180;2022-08-03T14:31:14;5.90;;;0.90;;
20669;SDS011;10494;50.868;4.180;2022-08-03T14:33:40;4.15;;;0.90;;
20669;SDS011;10494;50.868;4.180;2022-08-03T14:36:06;2.15;;;0.77;;
20669;SDS011;10494;50.868;4.180;2022-08-03T14:38:32;4.85;;;0.80;;
20669;SDS011;10494;50.868;4.180;2022-08-03T14:40:57;3.47;;;1.05;;
20669;SDS011;10494;50.868;4.180;2022-08-03T14:43:23;4.35;;;0.85;;
20669;SDS011;10494;50.868;4.180;2022-08-03T14:45:49;3.28;;;0.93;;
20669;SDS011;10494;50.868;4.180;2022-08-03T14:48:17;3.10;;;0.77;;
20669;SDS011;10494;50.868;4.180;2022-08-03T14:50:44;2.15;;;0.77;;
20669;SDS011;10494;50.868;4.180;2022-08-03T14:53:09;3.55;;;0.90;;
20669;SDS011;10494;50.868;4.180;2022-08-03T14:55:35;3.83;;;0.95;;
20669;SDS011;10494;50.868;4.180;2022-08-03T14:58:01;5.07;;;1.25;;
20669;SDS011;10494;50.868;4.180;2022-08-03T15:00:30;11.85;;;1.88;;
20669;SDS011;10494;50.868;4.180;2022-08-03T15:02:59;8.32;;;0.73;;
20669;SDS011;10494;50.868;4.180;2022-08-03T15:05:25;10.40;;;1.02;;
20669;SDS011;10494;50.868;4.180;2022-08-03T15:07:51;3.65;;;1.17;;
20669;SDS011;10494;50.868;4.180;2022-08-03T15:10:17;4.47;;;1.38;;
20669;SDS011;10494;50.868;4.180;2022-08-03T15:12:42;2.75;;;0.80;;
20669;SDS011;10494;50.868;4.180;2022-08-03T15:15:08;3.45;;;1.05;;
20669;SDS011;10494;50.868;4.180;2022-08-03T15:17:34;1.60;;;0.80;;
20669;SDS011;10494;50.868;4.180;2022-08-03T15:20:00;5.13;;;0.93;;
20669;SDS011;10494;50.868;4.180;2022-08-03T15:22:25;3.40;;;0.90;;
20669;SDS011;10494;50.868;4.180;2022-08-03T15:24:51;2.78;;;0.93;;
20669;SDS011;10494;50.868;4.180;2022-08-03T15:27:17;3.35;;;0.90;;